Bellevue, WA

7:41 PM PDT on July 26, 2016 (GMT -0700)
Redwood Estates | | Change Station

Elev 260 ft 47.64 °N, 122.12 °W | Updated 57 seconds ago

Clear
Clear
74.5 °F
Feels Like 74.5 °F
N
0.0
Wind Variable Wind from East
Gusts 0.0 mph

Today
High -- | Low -- °F
--% Chance of Precip.
Yesterday
High -- | Low -- °F
Precip. -- in
Pressure 30.09 in
Visibility 10.0 miles
Clouds Clear
Dew Point 42.8 °F
Humidity 31%
Rainfall Not available.
Snow Depth Not available.
5:39 AM 8:50 PM
Waning Gibbous, 48% visible
METAR KRNT 270153Z 31003KT 10SM CLR 25/13 A3008 RMK AO2 SLP189 T02500133 PNO $
Pressure 30.09 in
Visibility 10.0 miles
Clouds Clear
Dew Point 42.8 °F
Humidity 31%
Rainfall Not available.
Snow Depth Not available.
5:39 AM 8:50 PM
Waning Gibbous, 48% visible
METAR KRNT 270153Z 31003KT 10SM CLR 25/13 A3008 RMK AO2 SLP189 T02500133 PNO $

10-Day Weather Forecast

Almanac

Astronomy

Jul. 26, 2016 Rise Set
Actual Time
Civil Twilight
Nautical Twilight
Astronomical Twilight
Moon
Length of Visible Light
Length of Day
Tomorrow will be .
, % of the Moon is Illuminated

Today's Extremes

State Highs State Lows

Community

WunderPhotos

Upload Photos

1,927,784 photos uploaded!

WunderBlog® & News

Nearby

Air Quality

  Air Quality AQ Index Pollutant
Not available.

Snow Depth

Station Depth Elevation

Earthquake Activity

City Distance Mag. Time & Date
Minimum magnitude displayed is 2.5.

Coastal Water Temperatures

Place Temperature

Stations

Nearby Weather Stations

Station Location Temp. Windchill Dew Point Humidity Wind Precip. Elev Updated Type
                   

Watches & Warnings

There are currently no watches in effect.